sensor_id;sensor_type;location;lat;lon;timestamp;pressure;altitude;pressure_sealevel;temperature;humidity
64200;BME280;50516;52.272;5.136;2023-06-24T00:02:01;102459.91;;;20.43;70.65
64200;BME280;50516;52.272;5.136;2023-06-24T00:04:27;102465.47;;;20.43;70.90
64200;BME280;50516;52.272;5.136;2023-06-24T00:06:52;102466.81;;;20.46;70.47
64200;BME280;50516;52.272;5.136;2023-06-24T00:09:18;102471.28;;;20.47;69.94
64200;BME280;50516;52.272;5.136;2023-06-24T00:11:43;102468.78;;;20.45;70.28
64200;BME280;50516;52.272;5.136;2023-06-24T00:14:10;102463.22;;;20.45;70.03
64200;BME280;50516;52.272;5.136;2023-06-24T00:16:36;102464.91;;;20.41;70.08
64200;BME280;50516;52.272;5.136;2023-06-24T00:19:01;102465.22;;;20.39;69.83
64200;BME280;50516;52.272;5.136;2023-06-24T00:21:27;102466.16;;;20.35;70.52
64200;BME280;50516;52.272;5.136;2023-06-24T00:24:00;102463.09;;;20.31;70.65
64200;BME280;50516;52.272;5.136;2023-06-24T00:26:31;102457.31;;;20.28;70.73
64200;BME280;50516;52.272;5.136;2023-06-24T00:28:58;102460.38;;;20.26;71.07
64200;BME280;50516;52.272;5.136;2023-06-24T00:31:23;102456.00;;;20.20;70.79
64200;BME280;50516;52.272;5.136;2023-06-24T00:33:48;102465.50;;;20.19;71.08
64200;BME280;50516;52.272;5.136;2023-06-24T00:36:15;102464.66;;;20.18;71.19
64200;BME280;50516;52.272;5.136;2023-06-24T00:38:40;102461.34;;;20.16;71.45
64200;BME280;50516;52.272;5.136;2023-06-24T00:41:06;102461.13;;;20.13;71.37
64200;BME280;50516;52.272;5.136;2023-06-24T00:43:32;102459.69;;;20.15;71.14
64200;BME280;50516;52.272;5.136;2023-06-24T00:45:58;102458.25;;;20.18;71.12
64200;BME280;50516;52.272;5.136;2023-06-24T00:48:25;102452.16;;;20.16;71.19
64200;BME280;50516;52.272;5.136;2023-06-24T00:50:51;102462.19;;;20.17;71.03
64200;BME280;50516;52.272;5.136;2023-06-24T00:53:17;102445.69;;;20.20;70.99
64200;BME280;50516;52.272;5.136;2023-06-24T00:55:44;102453.75;;;20.22;70.84
64200;BME280;50516;52.272;5.136;2023-06-24T00:58:11;102454.94;;;20.16;71.27
64200;BME280;50516;52.272;5.136;2023-06-24T01:00:42;102451.88;;;20.17;71.16
64200;BME280;50516;52.272;5.136;2023-06-24T01:03:09;102452.41;;;20.19;70.81
64200;BME280;50516;52.272;5.136;2023-06-24T01:05:35;102452.91;;;20.21;69.97
64200;BME280;50516;52.272;5.136;2023-06-24T01:08:01;102451.28;;;20.20;69.96
64200;BME280;50516;52.272;5.136;2023-06-24T01:10:27;102446.59;;;20.16;70.15
64200;BME280;50516;52.272;5.136;2023-06-24T01:12:52;102446.88;;;20.14;69.80
64200;BME280;50516;52.272;5.136;2023-06-24T01:15:18;102449.97;;;20.13;68.57
64200;BME280;50516;52.272;5.136;2023-06-24T01:20:31;102445.28;;;20.08;69.03
64200;BME280;50516;52.272;5.136;2023-06-24T01:34:29;102440.50;;;19.90;67.13
64200;BME280;50516;52.272;5.136;2023-06-24T01:39:27;102440.03;;;19.82;68.37
64200;BME280;50516;52.272;5.136;2023-06-24T01:42:00;102440.31;;;19.81;67.59
64200;BME280;50516;52.272;5.136;2023-06-24T01:44:29;102439.53;;;19.75;67.61
64200;BME280;50516;52.272;5.136;2023-06-24T01:46:57;102447.03;;;19.75;66.59
64200;BME280;50516;52.272;5.136;2023-06-24T01:49:24;102438.44;;;19.71;67.15
64200;BME280;50516;52.272;5.136;2023-06-24T01:51:56;102435.72;;;19.66;65.57
64200;BME280;50516;52.272;5.136;2023-06-24T01:54:23;102434.34;;;19.63;66.28
64200;BME280;50516;52.272;5.136;2023-06-24T01:56:52;102429.63;;;19.64;67.27
64200;BME280;50516;52.272;5.136;2023-06-24T01:59:20;102435.22;;;19.59;66.68
64200;BME280;50516;52.272;5.136;2023-06-24T02:01:47;102428.81;;;19.58;67.42
64200;BME280;50516;52.272;5.136;2023-06-24T02:04:13;102427.50;;;19.50;67.12
64200;BME280;50516;52.272;5.136;2023-06-24T02:06:42;102427.81;;;19.49;66.86
64200;BME280;50516;52.272;5.136;2023-06-24T02:09:09;102429.78;;;19.48;66.79
64200;BME280;50516;52.272;5.136;2023-06-24T02:11:36;102425.31;;;19.47;66.05
64200;BME280;50516;52.272;5.136;2023-06-24T02:14:03;102422.00;;;19.45;65.45
64200;BME280;50516;52.272;5.136;2023-06-24T02:16:30;102420.03;;;19.46;65.96
64200;BME280;50516;52.272;5.136;2023-06-24T02:18:57;102414.47;;;19.46;66.35
64200;BME280;50516;52.272;5.136;2023-06-24T02:21:24;102412.03;;;19.39;65.71
64200;BME280;50516;52.272;5.136;2023-06-24T02:23:51;102417.06;;;19.37;65.33
64200;BME280;50516;52.272;5.136;2023-06-24T02:26:17;102419.84;;;19.37;64.10
64200;BME280;50516;52.272;5.136;2023-06-24T02:28:47;102425.44;;;19.37;64.73
64200;BME280;50516;52.272;5.136;2023-06-24T02:31:14;102424.91;;;19.35;64.14
64200;BME280;50516;52.272;5.136;2023-06-24T02:33:40;102422.41;;;19.33;64.84
64200;BME280;50516;52.272;5.136;2023-06-24T02:36:06;102417.13;;;19.32;63.88
64200;BME280;50516;52.272;5.136;2023-06-24T02:38:31;102415.75;;;19.29;63.91
64200;BME280;50516;52.272;5.136;2023-06-24T02:40:56;102413.81;;;19.30;64.68
64200;BME280;50516;52.272;5.136;2023-06-24T02:43:23;102409.19;;;19.20;64.45
64200;BME280;50516;52.272;5.136;2023-06-24T02:45:49;102409.47;;;19.19;65.08
64200;BME280;50516;52.272;5.136;2023-06-24T02:48:16;102416.19;;;19.12;65.30
64200;BME280;50516;52.272;5.136;2023-06-24T02:50:43;102421.25;;;19.05;65.65
64200;BME280;50516;52.272;5.136;2023-06-24T02:53:11;102412.03;;;19.10;65.60
64200;BME280;50516;52.272;5.136;2023-06-24T02:55:37;102415.63;;;19.15;65.14
64200;BME280;50516;52.272;5.136;2023-06-24T02:58:05;102413.94;;;19.14;65.09
64200;BME280;50516;52.272;5.136;2023-06-24T03:00:36;102412.28;;;19.13;65.27
64200;BME280;50516;52.272;5.136;2023-06-24T03:03:04;102411.75;;;19.11;65.86
64200;BME280;50516;52.272;5.136;2023-06-24T03:05:30;102408.66;;;19.13;65.21
64200;BME280;50516;52.272;5.136;2023-06-24T03:07:58;102408.38;;;19.14;65.64
64200;BME280;50516;52.272;5.136;2023-06-24T03:10:27;102408.97;;;19.11;65.84
64200;BME280;50516;52.272;5.136;2023-06-24T03:12:52;102410.69;;;19.07;66.17
64200;BME280;50516;52.272;5.136;2023-06-24T03:15:19;102400.41;;;19.03;66.06
64200;BME280;50516;52.272;5.136;2023-06-24T03:17:44;102395.16;;;19.01;65.94
64200;BME280;50516;52.272;5.136;2023-06-24T03:20:10;102391.50;;;19.01;66.39
64200;BME280;50516;52.272;5.136;2023-06-24T03:22:36;102387.09;;;19.00;66.73
64200;BME280;50516;52.272;5.136;2023-06-24T03:25:01;102391.84;;;18.99;66.22
64200;BME280;50516;52.272;5.136;2023-06-24T03:27:27;102402.69;;;18.95;65.88
64200;BME280;50516;52.272;5.136;2023-06-24T03:29:52;102404.66;;;18.95;67.07
64200;BME280;50516;52.272;5.136;2023-06-24T03:32:17;102401.88;;;18.95;66.71
64200;BME280;50516;52.272;5.136;2023-06-24T03:34:43;102403.84;;;18.94;66.93
64200;BME280;50516;52.272;5.136;2023-06-24T03:37:08;102408.56;;;18.94;67.29
64200;BME280;50516;52.272;5.136;2023-06-24T03:39:34;102407.50;;;18.90;67.47
64200;BME280;50516;52.272;5.136;2023-06-24T03:41:59;102407.78;;;18.88;67.67
64200;BME280;50516;52.272;5.136;2023-06-24T03:44:24;102403.91;;;18.84;68.13
64200;BME280;50516;52.272;5.136;2023-06-24T03:46:50;102409.47;;;18.84;68.41
64200;BME280;50516;52.272;5.136;2023-06-24T03:49:15;102412.78;;;18.81;68.46
64200;BME280;50516;52.272;5.136;2023-06-24T03:51:41;102415.56;;;18.81;68.56
64200;BME280;50516;52.272;5.136;2023-06-24T03:54:06;102415.31;;;18.88;68.62
64200;BME280;50516;52.272;5.136;2023-06-24T03:56:31;102415.56;;;18.91;68.71
64200;BME280;50516;52.272;5.136;2023-06-24T03:58:57;102413.25;;;18.98;68.50
64200;BME280;50516;52.272;5.136;2023-06-24T04:01:22;102408.19;;;19.06;68.44
64200;BME280;50516;52.272;5.136;2023-06-24T04:03:47;102417.25;;;19.16;68.13
64200;BME280;50516;52.272;5.136;2023-06-24T04:06:13;102417.72;;;19.29;67.50
64200;BME280;50516;52.272;5.136;2023-06-24T04:08:38;102417.06;;;19.37;67.08
64200;BME280;50516;52.272;5.136;2023-06-24T04:11:08;102421.72;;;19.47;66.70
64200;BME280;50516;52.272;5.136;2023-06-24T04:13:34;102416.88;;;19.58;67.52
64200;BME280;50516;52.272;5.136;2023-06-24T04:15:59;102410.94;;;19.64;67.32
64200;BME280;50516;52.272;5.136;2023-06-24T04:18:25;102409.13;;;19.79;66.88
64200;BME280;50516;52.272;5.136;2023-06-24T04:20:50;102413.44;;;19.90;66.53
64200;BME280;50516;52.272;5.136;2023-06-24T04:23:15;102409.41;;;20.01;66.37
64200;BME280;50516;52.272;5.136;2023-06-24T04:25:41;102420.03;;;20.18;66.10
64200;BME280;50516;52.272;5.136;2023-06-24T04:28:07;102410.41;;;20.30;65.91
64200;BME280;50516;52.272;5.136;2023-06-24T04:30:33;102409.22;;;20.36;65.65
64200;BME280;50516;52.272;5.136;2023-06-24T04:33:01;102424.06;;;20.50;65.06
64200;BME280;50516;52.272;5.136;2023-06-24T04:35:26;102422.34;;;20.54;65.17
64200;BME280;50516;52.272;5.136;2023-06-24T04:37:51;102428.38;;;20.23;65.84
64200;BME280;50516;52.272;5.136;2023-06-24T04:40:17;102422.75;;;20.04;67.93
64200;BME280;50516;52.272;5.136;2023-06-24T04:42:44;102423.50;;;19.91;68.62
64200;BME280;50516;52.272;5.136;2023-06-24T04:45:09;102422.47;;;19.82;68.68
64200;BME280;50516;52.272;5.136;2023-06-24T04:47:35;102414.94;;;19.82;68.88
64200;BME280;50516;52.272;5.136;2023-06-24T04:50:01;102423.28;;;19.82;68.95
64200;BME280;50516;52.272;5.136;2023-06-24T04:52:26;102427.44;;;20.09;68.65
64200;BME280;50516;52.272;5.136;2023-06-24T04:54:52;102427.41;;;20.33;68.00
64200;BME280;50516;52.272;5.136;2023-06-24T04:57:26;102412.59;;;20.52;67.32
64200;BME280;50516;52.272;5.136;2023-06-24T04:59:51;102418.31;;;20.60;66.89
64200;BME280;50516;52.272;5.136;2023-06-24T05:02:17;102423.38;;;20.58;67.79
64200;BME280;50516;52.272;5.136;2023-06-24T05:04:42;102429.78;;;20.97;66.65
64200;BME280;50516;52.272;5.136;2023-06-24T05:07:08;102435.25;;;21.21;66.31
64200;BME280;50516;52.272;5.136;2023-06-24T05:09:33;102430.13;;;21.42;65.46
64200;BME280;50516;52.272;5.136;2023-06-24T05:11:59;102435.88;;;21.51;65.65
64200;BME280;50516;52.272;5.136;2023-06-24T05:14:24;102432.34;;;21.59;65.30
64200;BME280;50516;52.272;5.136;2023-06-24T05:16:49;102443.44;;;21.64;65.50
64200;BME280;50516;52.272;5.136;2023-06-24T05:19:15;102439.91;;;21.73;65.23
64200;BME280;50516;52.272;5.136;2023-06-24T05:21:41;102443.44;;;21.92;64.80
64200;BME280;50516;52.272;5.136;2023-06-24T05:24:06;102448.81;;;22.02;65.03
64200;BME280;50516;52.272;5.136;2023-06-24T05:26:32;102448.72;;;22.08;64.27
64200;BME280;50516;52.272;5.136;2023-06-24T05:28:57;102449.97;;;22.29;64.14
64200;BME280;50516;52.272;5.136;2023-06-24T05:31:22;102447.22;;;22.38;64.01
64200;BME280;50516;52.272;5.136;2023-06-24T05:33:48;102453.06;;;22.41;64.17
64200;BME280;50516;52.272;5.136;2023-06-24T05:36:13;102451.78;;;22.48;63.83
64200;BME280;50516;52.272;5.136;2023-06-24T05:38:39;102454.34;;;22.58;64.38
64200;BME280;50516;52.272;5.136;2023-06-24T05:41:04;102449.97;;;22.66;63.69
64200;BME280;50516;52.272;5.136;2023-06-24T05:43:30;102454.25;;;22.86;63.58
64200;BME280;50516;52.272;5.136;2023-06-24T05:45:55;102455.16;;;22.95;63.38
64200;BME280;50516;52.272;5.136;2023-06-24T05:48:21;102450.69;;;22.94;63.31
64200;BME280;50516;52.272;5.136;2023-06-24T05:50:46;102447.13;;;23.02;63.25
64200;BME280;50516;52.272;5.136;2023-06-24T05:53:12;102451.81;;;22.93;63.75
64200;BME280;50516;52.272;5.136;2023-06-24T05:55:37;102456.16;;;22.99;62.39
64200;BME280;50516;52.272;5.136;2023-06-24T05:58:02;102449.75;;;23.21;62.29
64200;BME280;50516;52.272;5.136;2023-06-24T06:00:27;102458.63;;;23.14;61.33
64200;BME280;50516;52.272;5.136;2023-06-24T06:02:53;102455.53;;;23.25;61.47
64200;BME280;50516;52.272;5.136;2023-06-24T06:05:18;102444.34;;;23.25;60.76
64200;BME280;50516;52.272;5.136;2023-06-24T06:07:44;102447.53;;;23.32;61.06
64200;BME280;50516;52.272;5.136;2023-06-24T06:10:09;102453.09;;;23.55;60.98
64200;BME280;50516;52.272;5.136;2023-06-24T06:12:35;102452.63;;;23.61;60.77
64200;BME280;50516;52.272;5.136;2023-06-24T06:15:01;102447.47;;;23.55;60.55
64200;BME280;50516;52.272;5.136;2023-06-24T06:17:26;102451.78;;;23.61;60.61
64200;BME280;50516;52.272;5.136;2023-06-24T06:19:52;102447.72;;;23.76;60.03
64200;BME280;50516;52.272;5.136;2023-06-24T06:22:17;102443.38;;;24.01;60.19
64200;BME280;50516;52.272;5.136;2023-06-24T06:24:43;102447.16;;;23.96;60.51
64200;BME280;50516;52.272;5.136;2023-06-24T06:27:12;102441.38;;;23.93;59.21
64200;BME280;50516;52.272;5.136;2023-06-24T06:29:38;102441.03;;;23.85;59.03
64200;BME280;50516;52.272;5.136;2023-06-24T06:32:03;102442.88;;;23.90;58.92
64200;BME280;50516;52.272;5.136;2023-06-24T06:34:29;102442.06;;;24.07;59.04
64200;BME280;50516;52.272;5.136;2023-06-24T06:36:54;102448.34;;;24.04;58.55
64200;BME280;50516;52.272;5.136;2023-06-24T06:39:20;102458.44;;;24.14;59.21
64200;BME280;50516;52.272;5.136;2023-06-24T06:41:45;102452.03;;;24.31;58.67
64200;BME280;50516;52.272;5.136;2023-06-24T06:44:10;102449.25;;;24.48;58.60
64200;BME280;50516;52.272;5.136;2023-06-24T06:46:36;102450.63;;;24.68;58.35
64200;BME280;50516;52.272;5.136;2023-06-24T06:49:01;102455.09;;;24.69;56.50
64200;BME280;50516;52.272;5.136;2023-06-24T06:51:27;102448.25;;;24.53;57.79
64200;BME280;50516;52.272;5.136;2023-06-24T06:53:52;102450.94;;;24.67;57.58
64200;BME280;50516;52.272;5.136;2023-06-24T06:56:24;102452.75;;;24.80;56.85
64200;BME280;50516;52.272;5.136;2023-06-24T06:58:51;102452.09;;;24.66;57.42
64200;BME280;50516;52.272;5.136;2023-06-24T07:01:17;102452.22;;;24.52;56.62
64200;BME280;50516;52.272;5.136;2023-06-24T07:03:43;102449.94;;;24.71;57.17
64200;BME280;50516;52.272;5.136;2023-06-24T07:06:09;102454.72;;;24.88;56.68
64200;BME280;50516;52.272;5.136;2023-06-24T07:08:34;102460.47;;;25.09;56.97
64200;BME280;50516;52.272;5.136;2023-06-24T07:11:01;102452.91;;;25.10;56.24
64200;BME280;50516;52.272;5.136;2023-06-24T07:13:26;102447.59;;;25.00;56.61
64200;BME280;50516;52.272;5.136;2023-06-24T07:15:51;102438.16;;;25.30;55.68
64200;BME280;50516;52.272;5.136;2023-06-24T07:18:17;102441.13;;;25.34;55.31
64200;BME280;50516;52.272;5.136;2023-06-24T07:20:45;102444.38;;;25.45;55.73
64200;BME280;50516;52.272;5.136;2023-06-24T07:23:11;102443.28;;;25.20;55.57
64200;BME280;50516;52.272;5.136;2023-06-24T07:25:36;102442.28;;;25.33;55.94
64200;BME280;50516;52.272;5.136;2023-06-24T07:28:02;102440.28;;;25.42;56.01
64200;BME280;50516;52.272;5.136;2023-06-24T07:30:28;102454.50;;;25.46;55.06
64200;BME280;50516;52.272;5.136;2023-06-24T07:32:53;102454.19;;;25.39;55.76
64200;BME280;50516;52.272;5.136;2023-06-24T07:35:18;102452.81;;;25.45;55.55
64200;BME280;50516;52.272;5.136;2023-06-24T07:37:45;102450.16;;;25.57;56.05
64200;BME280;50516;52.272;5.136;2023-06-24T07:40:12;102451.28;;;25.65;54.82
64200;BME280;50516;52.272;5.136;2023-06-24T07:42:38;102449.84;;;25.88;54.95
64200;BME280;50516;52.272;5.136;2023-06-24T07:45:04;102453.16;;;25.91;54.88
64200;BME280;50516;52.272;5.136;2023-06-24T07:47:29;102451.56;;;25.81;54.05
64200;BME280;50516;52.272;5.136;2023-06-24T07:49:57;102452.34;;;26.20;53.88
64200;BME280;50516;52.272;5.136;2023-06-24T07:52:22;102443.78;;;26.16;53.12
64200;BME280;50516;52.272;5.136;2023-06-24T07:54:47;102446.00;;;26.02;53.39
64200;BME280;50516;52.272;5.136;2023-06-24T07:57:13;102448.53;;;25.86;55.17
64200;BME280;50516;52.272;5.136;2023-06-24T07:59:38;102441.38;;;25.88;54.52
64200;BME280;50516;52.272;5.136;2023-06-24T08:02:03;102443.81;;;26.08;55.25
64200;BME280;50516;52.272;5.136;2023-06-24T08:04:29;102450.69;;;25.89;54.26
64200;BME280;50516;52.272;5.136;2023-06-24T08:06:55;102460.22;;;26.05;54.49
64200;BME280;50516;52.272;5.136;2023-06-24T08:09:20;102460.50;;;26.13;55.19
64200;BME280;50516;52.272;5.136;2023-06-24T08:11:45;102450.09;;;26.34;53.89
64200;BME280;50516;52.272;5.136;2023-06-24T08:14:11;102452.81;;;26.22;53.91
64200;BME280;50516;52.272;5.136;2023-06-24T08:16:37;102450.28;;;26.08;54.46
64200;BME280;50516;52.272;5.136;2023-06-24T08:19:02;102439.88;;;26.00;54.96
64200;BME280;50516;52.272;5.136;2023-06-24T08:21:30;102445.69;;;26.24;54.63
64200;BME280;50516;52.272;5.136;2023-06-24T08:23:56;102450.88;;;26.44;53.84
64200;BME280;50516;52.272;5.136;2023-06-24T08:26:21;102449.34;;;26.25;53.28
64200;BME280;50516;52.272;5.136;2023-06-24T08:28:47;102457.53;;;26.39;54.14
64200;BME280;50516;52.272;5.136;2023-06-24T08:31:13;102448.41;;;26.42;53.55
64200;BME280;50516;52.272;5.136;2023-06-24T08:33:38;102447.53;;;26.71;53.25
64200;BME280;50516;52.272;5.136;2023-06-24T08:36:03;102455.78;;;26.47;53.37
64200;BME280;50516;52.272;5.136;2023-06-24T08:38:29;102452.44;;;26.32;53.49
64200;BME280;50516;52.272;5.136;2023-06-24T08:40:54;102457.72;;;26.34;53.09
64200;BME280;50516;52.272;5.136;2023-06-24T08:43:20;102460.13;;;26.23;52.31
64200;BME280;50516;52.272;5.136;2023-06-24T08:45:46;102454.56;;;26.35;52.95
64200;BME280;50516;52.272;5.136;2023-06-24T08:48:12;102455.50;;;26.18;54.12
64200;BME280;50516;52.272;5.136;2023-06-24T08:50:44;102450.69;;;26.19;53.89
64200;BME280;50516;52.272;5.136;2023-06-24T08:53:12;102451.63;;;26.53;53.09
64200;BME280;50516;52.272;5.136;2023-06-24T08:55:43;102451.56;;;26.83;52.17
64200;BME280;50516;52.272;5.136;2023-06-24T08:58:10;102452.41;;;27.17;51.74
64200;BME280;50516;52.272;5.136;2023-06-24T09:00:36;102450.44;;;26.96;52.29
64200;BME280;50516;52.272;5.136;2023-06-24T09:03:02;102455.91;;;27.13;52.48
64200;BME280;50516;52.272;5.136;2023-06-24T09:05:27;102451.75;;;27.32;52.46
64200;BME280;50516;52.272;5.136;2023-06-24T09:07:53;102442.25;;;27.03;52.08
64200;BME280;50516;52.272;5.136;2023-06-24T09:10:31;102437.41;;;26.70;51.93
64200;BME280;50516;52.272;5.136;2023-06-24T09:12:57;102440.59;;;27.02;52.12
64200;BME280;50516;52.272;5.136;2023-06-24T09:15:23;102446.81;;;26.95;53.19
64200;BME280;50516;52.272;5.136;2023-06-24T09:17:48;102452.81;;;27.06;52.58
64200;BME280;50516;52.272;5.136;2023-06-24T09:20:13;102447.34;;;27.10;52.80
64200;BME280;50516;52.272;5.136;2023-06-24T09:22:42;102449.00;;;27.23;52.86
64200;BME280;50516;52.272;5.136;2023-06-24T09:25:07;102445.41;;;27.35;52.51
64200;BME280;50516;52.272;5.136;2023-06-24T09:27:33;102445.06;;;27.37;52.31
64200;BME280;50516;52.272;5.136;2023-06-24T09:29:58;102445.34;;;27.44;52.31
64200;BME280;50516;52.272;5.136;2023-06-24T09:32:33;102440.03;;;27.42;51.45
64200;BME280;50516;52.272;5.136;2023-06-24T09:35:02;102439.94;;;27.63;52.11
64200;BME280;50516;52.272;5.136;2023-06-24T09:37:28;102445.94;;;27.74;51.43
64200;BME280;50516;52.272;5.136;2023-06-24T09:39:56;102437.47;;;27.74;51.16
64200;BME280;50516;52.272;5.136;2023-06-24T09:42:22;102441.00;;;27.83;51.76
64200;BME280;50516;52.272;5.136;2023-06-24T09:44:56;102436.31;;;27.87;51.93
64200;BME280;50516;52.272;5.136;2023-06-24T09:47:21;102441.72;;;27.68;51.39
64200;BME280;50516;52.272;5.136;2023-06-24T09:49:53;102434.31;;;27.88;51.95
64200;BME280;50516;52.272;5.136;2023-06-24T09:52:23;102435.97;;;27.89;51.49
64200;BME280;50516;52.272;5.136;2023-06-24T09:54:50;102440.06;;;27.79;52.39
64200;BME280;50516;52.272;5.136;2023-06-24T09:57:21;102417.22;;;27.60;52.21
64200;BME280;50516;52.272;5.136;2023-06-24T09:59:49;102430.31;;;28.01;51.74
64200;BME280;50516;52.272;5.136;2023-06-24T10:02:16;102430.81;;;28.03;52.31
64200;BME280;50516;52.272;5.136;2023-06-24T10:04:41;102416.78;;;28.07;52.03
64200;BME280;50516;52.272;5.136;2023-06-24T10:07:08;102415.84;;;27.91;52.62
64200;BME280;50516;52.272;5.136;2023-06-24T10:09:33;102410.16;;;28.28;51.85
64200;BME280;50516;52.272;5.136;2023-06-24T10:11:59;102414.97;;;28.39;51.34
64200;BME280;50516;52.272;5.136;2023-06-24T10:14:25;102408.06;;;28.12;51.39
64200;BME280;50516;52.272;5.136;2023-06-24T10:16:51;102418.84;;;28.35;50.74
64200;BME280;50516;52.272;5.136;2023-06-24T10:19:20;102420.81;;;28.47;51.23
64200;BME280;50516;52.272;5.136;2023-06-24T10:21:52;102415.94;;;28.72;50.71
64200;BME280;50516;52.272;5.136;2023-06-24T10:24:35;102413.38;;;28.67;50.76
64200;BME280;50516;52.272;5.136;2023-06-24T10:27:08;102408.13;;;28.81;50.41
64200;BME280;50516;52.272;5.136;2023-06-24T10:29:38;102406.03;;;28.78;50.29
64200;BME280;50516;52.272;5.136;2023-06-24T10:32:05;102405.97;;;28.62;48.95
64200;BME280;50516;52.272;5.136;2023-06-24T10:34:32;102405.03;;;28.58;50.38
64200;BME280;50516;52.272;5.136;2023-06-24T10:37:07;102404.94;;;28.42;48.99
64200;BME280;50516;52.272;5.136;2023-06-24T10:42:37;102405.25;;;28.65;48.43
64200;BME280;50516;52.272;5.136;2023-06-24T10:47:34;102400.50;;;28.69;48.69
64200;BME280;50516;52.272;5.136;2023-06-24T10:50:00;102390.22;;;28.77;47.63
64200;BME280;50516;52.272;5.136;2023-06-24T10:52:25;102393.09;;;28.65;47.78
64200;BME280;50516;52.272;5.136;2023-06-24T10:54:52;102393.16;;;28.52;48.55
64200;BME280;50516;52.272;5.136;2023-06-24T10:57:27;102387.09;;;28.26;49.13
64200;BME280;50516;52.272;5.136;2023-06-24T10:59:54;102391.47;;;28.51;50.18
64200;BME280;50516;52.272;5.136;2023-06-24T11:02:25;102380.91;;;28.61;49.20
64200;BME280;50516;52.272;5.136;2023-06-24T11:04:56;102392.56;;;28.47;49.63
64200;BME280;50516;52.272;5.136;2023-06-24T11:07:23;102382.09;;;28.47;49.87
64200;BME280;50516;52.272;5.136;2023-06-24T11:09:50;102380.19;;;28.51;49.81
64200;BME280;50516;52.272;5.136;2023-06-24T11:12:16;102382.34;;;28.42;50.21
64200;BME280;50516;52.272;5.136;2023-06-24T11:14:41;102383.72;;;28.61;50.31
64200;BME280;50516;52.272;5.136;2023-06-24T11:17:06;102384.50;;;28.33;49.18
64200;BME280;50516;52.272;5.136;2023-06-24T11:19:32;102375.16;;;28.45;48.58
64200;BME280;50516;52.272;5.136;2023-06-24T11:22:02;102376.28;;;28.56;48.31
64200;BME280;50516;52.272;5.136;2023-06-24T11:24:28;102389.28;;;28.73;49.21
64200;BME280;50516;52.272;5.136;2023-06-24T11:26:56;102386.25;;;28.78;48.22
64200;BME280;50516;52.272;5.136;2023-06-24T11:29:22;102389.38;;;28.48;47.59
64200;BME280;50516;52.272;5.136;2023-06-24T11:31:49;102379.72;;;28.49;47.11
64200;BME280;50516;52.272;5.136;2023-06-24T11:34:15;102382.19;;;28.51;47.70
64200;BME280;50516;52.272;5.136;2023-06-24T11:36:40;102383.66;;;28.32;47.67
64200;BME280;50516;52.272;5.136;2023-06-24T11:39:06;102379.06;;;28.40;47.34
64200;BME280;50516;52.272;5.136;2023-06-24T11:41:31;102371.53;;;28.44;47.96
64200;BME280;50516;52.272;5.136;2023-06-24T11:44:00;102377.91;;;28.69;47.95
64200;BME280;50516;52.272;5.136;2023-06-24T11:46:27;102371.69;;;28.64;46.54
64200;BME280;50516;52.272;5.136;2023-06-24T11:49:02;102365.16;;;28.75;46.94
64200;BME280;50516;52.272;5.136;2023-06-24T11:51:27;102371.28;;;28.93;47.20
64200;BME280;50516;52.272;5.136;2023-06-24T11:53:53;102366.13;;;28.95;46.57
64200;BME280;50516;52.272;5.136;2023-06-24T11:56:40;102365.84;;;29.01;45.67
64200;BME280;50516;52.272;5.136;2023-06-24T11:59:07;102359.31;;;28.68;45.86
64200;BME280;50516;52.272;5.136;2023-06-24T12:01:42;102360.53;;;28.83;46.27
64200;BME280;50516;52.272;5.136;2023-06-24T12:04:14;102356.13;;;28.70;47.12
64200;BME280;50516;52.272;5.136;2023-06-24T12:06:40;102356.41;;;28.52;46.17
64200;BME280;50516;52.272;5.136;2023-06-24T12:09:07;102346.31;;;28.39;46.12
64200;BME280;50516;52.272;5.136;2023-06-24T12:11:32;102342.47;;;28.72;47.08
64200;BME280;50516;52.272;5.136;2023-06-24T12:13:58;102354.16;;;28.86;47.37
64200;BME280;50516;52.272;5.136;2023-06-24T12:16:23;102347.66;;;28.70;46.72
64200;BME280;50516;52.272;5.136;2023-06-24T12:18:50;102345.41;;;28.63;46.46
64200;BME280;50516;52.272;5.136;2023-06-24T12:21:15;102344.91;;;28.73;46.91
64200;BME280;50516;52.272;5.136;2023-06-24T12:23:40;102346.34;;;28.95;46.11
64200;BME280;50516;52.272;5.136;2023-06-24T12:26:06;102339.69;;;29.04;45.80
64200;BME280;50516;52.272;5.136;2023-06-24T12:28:31;102340.56;;;29.08;45.77
64200;BME280;50516;52.272;5.136;2023-06-24T12:30:56;102338.06;;;28.74;45.99
64200;BME280;50516;52.272;5.136;2023-06-24T12:33:22;102349.53;;;28.66;46.37
64200;BME280;50516;52.272;5.136;2023-06-24T12:35:48;102341.63;;;28.71;45.33
64200;BME280;50516;52.272;5.136;2023-06-24T12:38:13;102330.53;;;28.78;46.15
64200;BME280;50516;52.272;5.136;2023-06-24T12:40:39;102336.72;;;28.84;46.38
64200;BME280;50516;52.272;5.136;2023-06-24T12:43:04;102325.88;;;28.86;46.02
64200;BME280;50516;52.272;5.136;2023-06-24T12:45:30;102336.72;;;28.68;45.43
64200;BME280;50516;52.272;5.136;2023-06-24T12:47:56;102326.59;;;28.83;45.76
64200;BME280;50516;52.272;5.136;2023-06-24T12:50:21;102327.31;;;28.80;46.29
64200;BME280;50516;52.272;5.136;2023-06-24T12:52:47;102333.16;;;28.87;45.26
64200;BME280;50516;52.272;5.136;2023-06-24T12:55:12;102326.25;;;29.01;45.24
64200;BME280;50516;52.272;5.136;2023-06-24T12:57:37;102322.34;;;28.89;45.67
64200;BME280;50516;52.272;5.136;2023-06-24T13:00:04;102325.78;;;28.99;45.51
64200;BME280;50516;52.272;5.136;2023-06-24T13:02:30;102324.53;;;28.96;46.40
64200;BME280;50516;52.272;5.136;2023-06-24T13:04:55;102326.28;;;29.32;45.77
64200;BME280;50516;52.272;5.136;2023-06-24T13:07:21;102323.97;;;29.54;45.24
64200;BME280;50516;52.272;5.136;2023-06-24T13:09:46;102318.72;;;29.72;43.95